sensor_id;sensor_type;location;lat;lon;timestamp;P1;durP1;ratioP1;P2;durP2;ratioP2
9240;SDS011;53485;49.326;9.738;2023-03-02T00:01:19;44.20;;;23.30;;
9240;SDS011;53485;49.326;9.738;2023-03-02T00:03:45;48.33;;;23.13;;
9240;SDS011;53485;49.326;9.738;2023-03-02T00:06:11;46.53;;;23.70;;
9240;SDS011;53485;49.326;9.738;2023-03-02T00:08:38;44.00;;;21.77;;
9240;SDS011;53485;49.326;9.738;2023-03-02T00:11:04;42.20;;;22.17;;
9240;SDS011;53485;49.326;9.738;2023-03-02T00:13:31;44.00;;;22.70;;
9240;SDS011;53485;49.326;9.738;2023-03-02T00:15:57;47.13;;;23.90;;
9240;SDS011;53485;49.326;9.738;2023-03-02T00:18:24;41.20;;;22.13;;
9240;SDS011;53485;49.326;9.738;2023-03-02T00:20:51;43.63;;;22.23;;
9240;SDS011;53485;49.326;9.738;2023-03-02T00:23:17;44.37;;;23.03;;
9240;SDS011;53485;49.326;9.738;2023-03-02T00:25:43;42.47;;;22.37;;
9240;SDS011;53485;49.326;9.738;2023-03-02T00:28:10;41.83;;;21.47;;
9240;SDS011;53485;49.326;9.738;2023-03-02T00:30:37;44.43;;;22.37;;
9240;SDS011;53485;49.326;9.738;2023-03-02T00:33:03;45.27;;;22.10;;
9240;SDS011;53485;49.326;9.738;2023-03-02T00:35:30;46.37;;;22.63;;
9240;SDS011;53485;49.326;9.738;2023-03-02T00:37:57;47.40;;;23.77;;
9240;SDS011;53485;49.326;9.738;2023-03-02T00:40:23;42.03;;;22.43;;
9240;SDS011;53485;49.326;9.738;2023-03-02T00:42:50;47.90;;;24.37;;
9240;SDS011;53485;49.326;9.738;2023-03-02T00:45:17;42.00;;;22.63;;
9240;SDS011;53485;49.326;9.738;2023-03-02T00:47:43;50.17;;;23.80;;
9240;SDS011;53485;49.326;9.738;2023-03-02T00:50:10;52.87;;;24.23;;
9240;SDS011;53485;49.326;9.738;2023-03-02T00:52:37;43.13;;;22.33;;
9240;SDS011;53485;49.326;9.738;2023-03-02T00:55:04;45.37;;;23.17;;
9240;SDS011;53485;49.326;9.738;2023-03-02T00:57:30;49.93;;;24.37;;
9240;SDS011;53485;49.326;9.738;2023-03-02T00:59:57;47.07;;;24.07;;
9240;SDS011;53485;49.326;9.738;2023-03-02T01:02:23;43.90;;;21.97;;
9240;SDS011;53485;49.326;9.738;2023-03-02T01:04:50;47.07;;;23.70;;
9240;SDS011;53485;49.326;9.738;2023-03-02T01:07:17;46.97;;;24.80;;
9240;SDS011;53485;49.326;9.738;2023-03-02T01:09:43;45.33;;;23.07;;
9240;SDS011;53485;49.326;9.738;2023-03-02T01:12:09;43.90;;;23.30;;
9240;SDS011;53485;49.326;9.738;2023-03-02T01:14:36;48.00;;;24.53;;
9240;SDS011;53485;49.326;9.738;2023-03-02T01:17:03;48.37;;;23.33;;
9240;SDS011;53485;49.326;9.738;2023-03-02T01:19:29;44.37;;;23.77;;
9240;SDS011;53485;49.326;9.738;2023-03-02T01:21:55;42.03;;;22.27;;
9240;SDS011;53485;49.326;9.738;2023-03-02T01:24:21;45.23;;;24.03;;
9240;SDS011;53485;49.326;9.738;2023-03-02T01:26:48;49.13;;;25.73;;
9240;SDS011;53485;49.326;9.738;2023-03-02T01:29:15;42.50;;;23.27;;
9240;SDS011;53485;49.326;9.738;2023-03-02T01:31:41;47.50;;;24.43;;
9240;SDS011;53485;49.326;9.738;2023-03-02T01:34:08;48.70;;;24.80;;
9240;SDS011;53485;49.326;9.738;2023-03-02T01:36:34;45.40;;;22.77;;
9240;SDS011;53485;49.326;9.738;2023-03-02T01:39:01;44.73;;;22.83;;
9240;SDS011;53485;49.326;9.738;2023-03-02T01:41:27;44.47;;;21.97;;
9240;SDS011;53485;49.326;9.738;2023-03-02T01:43:54;45.57;;;23.53;;
9240;SDS011;53485;49.326;9.738;2023-03-02T01:46:21;43.90;;;23.73;;
9240;SDS011;53485;49.326;9.738;2023-03-02T01:48:53;46.20;;;21.57;;
9240;SDS011;53485;49.326;9.738;2023-03-02T01:51:18;46.10;;;23.60;;
9240;SDS011;53485;49.326;9.738;2023-03-02T01:53:43;44.20;;;22.63;;
9240;SDS011;53485;49.326;9.738;2023-03-02T01:56:09;45.20;;;22.93;;
9240;SDS011;53485;49.326;9.738;2023-03-02T01:58:36;43.90;;;21.40;;
9240;SDS011;53485;49.326;9.738;2023-03-02T02:01:02;48.83;;;22.33;;
9240;SDS011;53485;49.326;9.738;2023-03-02T02:03:29;44.47;;;22.83;;
9240;SDS011;53485;49.326;9.738;2023-03-02T02:06:02;45.43;;;23.33;;
9240;SDS011;53485;49.326;9.738;2023-03-02T02:08:25;48.67;;;24.00;;
9240;SDS011;53485;49.326;9.738;2023-03-02T02:10:52;45.50;;;22.33;;
9240;SDS011;53485;49.326;9.738;2023-03-02T02:13:18;44.43;;;21.77;;
9240;SDS011;53485;49.326;9.738;2023-03-02T02:15:44;43.13;;;21.33;;
9240;SDS011;53485;49.326;9.738;2023-03-02T02:18:11;47.23;;;22.90;;
9240;SDS011;53485;49.326;9.738;2023-03-02T02:20:39;44.07;;;23.67;;
9240;SDS011;53485;49.326;9.738;2023-03-02T02:28:12;41.00;;;21.40;;
9240;SDS011;53485;49.326;9.738;2023-03-02T02:30:36;46.37;;;23.67;;
9240;SDS011;53485;49.326;9.738;2023-03-02T02:33:03;44.93;;;22.67;;
9240;SDS011;53485;49.326;9.738;2023-03-02T02:35:29;46.30;;;23.50;;
9240;SDS011;53485;49.326;9.738;2023-03-02T02:37:56;48.77;;;23.30;;
9240;SDS011;53485;49.326;9.738;2023-03-02T02:42:55;46.40;;;22.90;;
9240;SDS011;53485;49.326;9.738;2023-03-02T02:45:23;49.60;;;23.93;;
9240;SDS011;53485;49.326;9.738;2023-03-02T02:47:48;46.53;;;22.40;;
9240;SDS011;53485;49.326;9.738;2023-03-02T02:50:20;43.17;;;22.47;;
9240;SDS011;53485;49.326;9.738;2023-03-02T02:52:46;44.53;;;23.83;;
9240;SDS011;53485;49.326;9.738;2023-03-02T02:55:13;47.70;;;23.57;;
9240;SDS011;53485;49.326;9.738;2023-03-02T02:57:38;46.97;;;23.67;;
9240;SDS011;53485;49.326;9.738;2023-03-02T03:00:05;47.47;;;23.83;;
9240;SDS011;53485;49.326;9.738;2023-03-02T03:02:43;51.07;;;24.20;;
9240;SDS011;53485;49.326;9.738;2023-03-02T03:04:58;46.73;;;23.00;;
9240;SDS011;53485;49.326;9.738;2023-03-02T03:07:28;44.70;;;23.60;;
9240;SDS011;53485;49.326;9.738;2023-03-02T03:09:57;46.00;;;23.40;;
9240;SDS011;53485;49.326;9.738;2023-03-02T03:12:22;48.73;;;23.73;;
9240;SDS011;53485;49.326;9.738;2023-03-02T03:14:48;47.20;;;22.87;;
9240;SDS011;53485;49.326;9.738;2023-03-02T03:17:14;46.93;;;23.90;;
9240;SDS011;53485;49.326;9.738;2023-03-02T03:19:42;46.27;;;24.03;;
9240;SDS011;53485;49.326;9.738;2023-03-02T03:22:08;43.93;;;22.97;;
9240;SDS011;53485;49.326;9.738;2023-03-02T03:24:33;45.87;;;22.77;;
9240;SDS011;53485;49.326;9.738;2023-03-02T03:27:00;46.27;;;24.13;;
9240;SDS011;53485;49.326;9.738;2023-03-02T03:29:26;47.00;;;23.17;;
9240;SDS011;53485;49.326;9.738;2023-03-02T03:31:53;47.53;;;23.53;;
9240;SDS011;53485;49.326;9.738;2023-03-02T03:34:19;47.57;;;23.57;;
9240;SDS011;53485;49.326;9.738;2023-03-02T03:36:45;51.10;;;23.37;;
9240;SDS011;53485;49.326;9.738;2023-03-02T03:39:11;52.33;;;24.27;;
9240;SDS011;53485;49.326;9.738;2023-03-02T03:41:37;45.20;;;22.87;;
9240;SDS011;53485;49.326;9.738;2023-03-02T03:44:04;52.20;;;24.40;;
9240;SDS011;53485;49.326;9.738;2023-03-02T03:46:31;48.13;;;23.47;;
9240;SDS011;53485;49.326;9.738;2023-03-02T03:48:57;51.63;;;25.03;;
9240;SDS011;53485;49.326;9.738;2023-03-02T03:51:23;48.03;;;22.60;;
9240;SDS011;53485;49.326;9.738;2023-03-02T03:53:50;50.73;;;24.33;;
9240;SDS011;53485;49.326;9.738;2023-03-02T03:56:16;44.00;;;21.70;;
9240;SDS011;53485;49.326;9.738;2023-03-02T03:58:43;50.67;;;23.13;;
9240;SDS011;53485;49.326;9.738;2023-03-02T04:01:09;48.20;;;22.60;;
9240;SDS011;53485;49.326;9.738;2023-03-02T04:03:36;41.37;;;21.37;;
9240;SDS011;53485;49.326;9.738;2023-03-02T04:06:03;39.97;;;21.53;;
9240;SDS011;53485;49.326;9.738;2023-03-02T04:08:29;44.50;;;21.73;;
9240;SDS011;53485;49.326;9.738;2023-03-02T04:10:56;47.20;;;23.10;;
9240;SDS011;53485;49.326;9.738;2023-03-02T04:13:22;51.10;;;23.77;;
9240;SDS011;53485;49.326;9.738;2023-03-02T04:15:49;49.27;;;23.87;;
9240;SDS011;53485;49.326;9.738;2023-03-02T04:18:15;50.43;;;24.17;;
9240;SDS011;53485;49.326;9.738;2023-03-02T04:20:42;49.07;;;24.87;;
9240;SDS011;53485;49.326;9.738;2023-03-02T04:23:09;47.40;;;24.70;;
9240;SDS011;53485;49.326;9.738;2023-03-02T04:25:35;46.27;;;24.20;;
9240;SDS011;53485;49.326;9.738;2023-03-02T04:28:02;47.70;;;25.80;;
9240;SDS011;53485;49.326;9.738;2023-03-02T04:30:29;45.03;;;23.17;;
9240;SDS011;53485;49.326;9.738;2023-03-02T04:32:55;44.87;;;21.53;;
9240;SDS011;53485;49.326;9.738;2023-03-02T04:35:22;45.67;;;22.40;;
9240;SDS011;53485;49.326;9.738;2023-03-02T04:37:48;46.00;;;22.80;;
9240;SDS011;53485;49.326;9.738;2023-03-02T04:40:15;43.63;;;21.93;;
9240;SDS011;53485;49.326;9.738;2023-03-02T04:42:40;47.07;;;22.97;;
9240;SDS011;53485;49.326;9.738;2023-03-02T04:45:07;48.40;;;23.43;;
9240;SDS011;53485;49.326;9.738;2023-03-02T04:47:34;47.27;;;22.80;;
9240;SDS011;53485;49.326;9.738;2023-03-02T04:50:01;48.13;;;23.90;;
9240;SDS011;53485;49.326;9.738;2023-03-02T04:52:27;49.87;;;23.60;;
9240;SDS011;53485;49.326;9.738;2023-03-02T04:54:54;44.47;;;22.47;;
9240;SDS011;53485;49.326;9.738;2023-03-02T04:57:20;45.47;;;22.17;;
9240;SDS011;53485;49.326;9.738;2023-03-02T04:59:47;42.83;;;21.50;;
9240;SDS011;53485;49.326;9.738;2023-03-02T05:02:13;44.53;;;21.37;;
9240;SDS011;53485;49.326;9.738;2023-03-02T05:04:40;41.73;;;20.90;;
9240;SDS011;53485;49.326;9.738;2023-03-02T05:07:06;43.63;;;21.60;;
9240;SDS011;53485;49.326;9.738;2023-03-02T05:09:32;42.33;;;21.37;;
9240;SDS011;53485;49.326;9.738;2023-03-02T05:11:59;42.30;;;20.67;;
9240;SDS011;53485;49.326;9.738;2023-03-02T05:14:25;43.77;;;21.67;;
9240;SDS011;53485;49.326;9.738;2023-03-02T05:16:51;45.90;;;21.83;;
9240;SDS011;53485;49.326;9.738;2023-03-02T05:19:18;45.73;;;22.30;;
9240;SDS011;53485;49.326;9.738;2023-03-02T05:21:44;43.93;;;22.00;;
9240;SDS011;53485;49.326;9.738;2023-03-02T05:24:10;42.30;;;22.10;;
9240;SDS011;53485;49.326;9.738;2023-03-02T05:26:37;45.07;;;21.83;;
9240;SDS011;53485;49.326;9.738;2023-03-02T05:29:03;41.10;;;21.47;;
9240;SDS011;53485;49.326;9.738;2023-03-02T05:31:31;42.83;;;21.30;;
9240;SDS011;53485;49.326;9.738;2023-03-02T05:33:56;41.83;;;20.33;;
9240;SDS011;53485;49.326;9.738;2023-03-02T05:36:23;45.07;;;23.23;;
9240;SDS011;53485;49.326;9.738;2023-03-02T05:38:49;44.67;;;22.37;;
9240;SDS011;53485;49.326;9.738;2023-03-02T05:41:16;44.53;;;21.43;;
9240;SDS011;53485;49.326;9.738;2023-03-02T05:43:43;48.07;;;22.57;;
9240;SDS011;53485;49.326;9.738;2023-03-02T05:46:09;44.90;;;21.47;;
9240;SDS011;53485;49.326;9.738;2023-03-02T05:48:36;39.80;;;20.67;;
9240;SDS011;53485;49.326;9.738;2023-03-02T05:51:02;41.70;;;20.20;;
9240;SDS011;53485;49.326;9.738;2023-03-02T05:53:29;44.43;;;22.70;;
9240;SDS011;53485;49.326;9.738;2023-03-02T05:55:55;40.60;;;20.47;;
9240;SDS011;53485;49.326;9.738;2023-03-02T05:58:22;38.77;;;20.33;;
9240;SDS011;53485;49.326;9.738;2023-03-02T06:00:49;44.20;;;21.77;;
9240;SDS011;53485;49.326;9.738;2023-03-02T06:03:15;47.83;;;21.20;;
9240;SDS011;53485;49.326;9.738;2023-03-02T06:05:41;39.60;;;19.93;;
9240;SDS011;53485;49.326;9.738;2023-03-02T06:08:07;232.40;;;86.47;;
9240;SDS011;53485;49.326;9.738;2023-03-02T06:10:34;97.10;;;46.87;;
9240;SDS011;53485;49.326;9.738;2023-03-02T06:13:00;50.03;;;24.67;;
9240;SDS011;53485;49.326;9.738;2023-03-02T06:15:27;48.00;;;23.10;;
9240;SDS011;53485;49.326;9.738;2023-03-02T06:17:53;42.67;;;21.73;;
9240;SDS011;53485;49.326;9.738;2023-03-02T06:20:19;37.40;;;19.77;;
9240;SDS011;53485;49.326;9.738;2023-03-02T06:22:46;41.87;;;20.80;;
9240;SDS011;53485;49.326;9.738;2023-03-02T06:25:14;42.17;;;20.53;;
9240;SDS011;53485;49.326;9.738;2023-03-02T06:27:39;44.83;;;20.90;;
9240;SDS011;53485;49.326;9.738;2023-03-02T06:30:06;46.23;;;21.83;;
9240;SDS011;53485;49.326;9.738;2023-03-02T06:32:32;42.23;;;20.30;;
9240;SDS011;53485;49.326;9.738;2023-03-02T06:34:59;42.33;;;21.23;;
9240;SDS011;53485;49.326;9.738;2023-03-02T06:37:25;43.00;;;21.13;;
9240;SDS011;53485;49.326;9.738;2023-03-02T06:39:51;39.60;;;20.80;;
9240;SDS011;53485;49.326;9.738;2023-03-02T06:42:18;39.53;;;19.30;;
9240;SDS011;53485;49.326;9.738;2023-03-02T06:44:44;41.10;;;20.20;;
9240;SDS011;53485;49.326;9.738;2023-03-02T06:47:11;40.00;;;20.47;;
9240;SDS011;53485;49.326;9.738;2023-03-02T06:49:37;43.17;;;21.70;;
9240;SDS011;53485;49.326;9.738;2023-03-02T06:52:04;40.50;;;20.93;;
9240;SDS011;53485;49.326;9.738;2023-03-02T06:54:30;39.63;;;19.67;;
9240;SDS011;53485;49.326;9.738;2023-03-02T06:56:57;44.17;;;21.40;;
9240;SDS011;53485;49.326;9.738;2023-03-02T06:59:23;39.63;;;20.57;;
9240;SDS011;53485;49.326;9.738;2023-03-02T07:01:50;37.70;;;19.87;;
9240;SDS011;53485;49.326;9.738;2023-03-02T07:04:16;38.97;;;19.97;;
9240;SDS011;53485;49.326;9.738;2023-03-02T07:06:43;42.60;;;21.07;;
9240;SDS011;53485;49.326;9.738;2023-03-02T07:09:10;38.47;;;20.50;;
9240;SDS011;53485;49.326;9.738;2023-03-02T07:11:36;88.33;;;33.30;;
9240;SDS011;53485;49.326;9.738;2023-03-02T07:14:03;73.53;;;30.13;;
9240;SDS011;53485;49.326;9.738;2023-03-02T07:16:31;48.60;;;22.47;;
9240;SDS011;53485;49.326;9.738;2023-03-02T07:18:56;40.30;;;19.93;;
9240;SDS011;53485;49.326;9.738;2023-03-02T07:21:23;38.93;;;19.20;;
9240;SDS011;53485;49.326;9.738;2023-03-02T07:23:49;39.33;;;18.97;;
9240;SDS011;53485;49.326;9.738;2023-03-02T07:26:16;33.37;;;18.70;;
9240;SDS011;53485;49.326;9.738;2023-03-02T07:28:43;38.30;;;18.80;;
9240;SDS011;53485;49.326;9.738;2023-03-02T07:31:09;35.43;;;18.33;;
9240;SDS011;53485;49.326;9.738;2023-03-02T07:33:36;35.90;;;18.50;;
9240;SDS011;53485;49.326;9.738;2023-03-02T07:36:02;29.80;;;17.20;;
9240;SDS011;53485;49.326;9.738;2023-03-02T07:38:29;30.60;;;17.27;;
9240;SDS011;53485;49.326;9.738;2023-03-02T07:40:56;29.93;;;16.73;;
9240;SDS011;53485;49.326;9.738;2023-03-02T07:43:22;29.73;;;17.00;;
9240;SDS011;53485;49.326;9.738;2023-03-02T07:45:48;30.63;;;16.90;;
9240;SDS011;53485;49.326;9.738;2023-03-02T07:48:15;28.33;;;16.20;;
9240;SDS011;53485;49.326;9.738;2023-03-02T07:50:42;23.83;;;15.50;;
9240;SDS011;53485;49.326;9.738;2023-03-02T07:53:08;27.70;;;16.73;;
9240;SDS011;53485;49.326;9.738;2023-03-02T07:55:38;25.80;;;16.37;;
9240;SDS011;53485;49.326;9.738;2023-03-02T07:58:01;27.83;;;17.30;;
9240;SDS011;53485;49.326;9.738;2023-03-02T08:00:28;27.10;;;16.93;;
9240;SDS011;53485;49.326;9.738;2023-03-02T08:02:55;26.73;;;16.20;;
9240;SDS011;53485;49.326;9.738;2023-03-02T08:05:21;27.40;;;16.33;;
9240;SDS011;53485;49.326;9.738;2023-03-02T08:07:48;25.50;;;15.90;;
9240;SDS011;53485;49.326;9.738;2023-03-02T08:10:15;30.47;;;17.73;;
9240;SDS011;53485;49.326;9.738;2023-03-02T08:12:41;27.73;;;19.97;;
9240;SDS011;53485;49.326;9.738;2023-03-02T08:15:08;28.23;;;17.47;;
9240;SDS011;53485;49.326;9.738;2023-03-02T08:17:35;35.90;;;21.90;;
9240;SDS011;53485;49.326;9.738;2023-03-02T08:20:01;59.60;;;30.00;;
9240;SDS011;53485;49.326;9.738;2023-03-02T08:22:27;31.50;;;20.47;;
9240;SDS011;53485;49.326;9.738;2023-03-02T08:24:54;30.53;;;19.83;;
9240;SDS011;53485;49.326;9.738;2023-03-02T08:27:21;27.57;;;16.70;;
9240;SDS011;53485;49.326;9.738;2023-03-02T08:29:47;27.07;;;18.43;;
9240;SDS011;53485;49.326;9.738;2023-03-02T08:32:14;34.67;;;17.90;;
9240;SDS011;53485;49.326;9.738;2023-03-02T08:34:40;29.97;;;18.17;;
9240;SDS011;53485;49.326;9.738;2023-03-02T08:37:07;31.27;;;23.13;;
9240;SDS011;53485;49.326;9.738;2023-03-02T08:39:34;27.03;;;19.40;;
9240;SDS011;53485;49.326;9.738;2023-03-02T08:42:00;27.37;;;16.30;;
9240;SDS011;53485;49.326;9.738;2023-03-02T08:44:27;22.50;;;15.63;;
9240;SDS011;53485;49.326;9.738;2023-03-02T08:46:54;22.93;;;16.03;;
9240;SDS011;53485;49.326;9.738;2023-03-02T08:49:20;26.27;;;15.73;;
9240;SDS011;53485;49.326;9.738;2023-03-02T08:51:47;21.37;;;14.83;;
9240;SDS011;53485;49.326;9.738;2023-03-02T08:54:13;27.43;;;17.53;;
9240;SDS011;53485;49.326;9.738;2023-03-02T08:56:40;24.80;;;16.13;;
9240;SDS011;53485;49.326;9.738;2023-03-02T08:59:08;29.20;;;15.93;;
9240;SDS011;53485;49.326;9.738;2023-03-02T09:01:33;22.63;;;16.33;;
9240;SDS011;53485;49.326;9.738;2023-03-02T09:03:59;48.43;;;35.77;;
9240;SDS011;53485;49.326;9.738;2023-03-02T09:06:26;21.53;;;15.33;;
9240;SDS011;53485;49.326;9.738;2023-03-02T09:08:52;25.03;;;15.90;;
9240;SDS011;53485;49.326;9.738;2023-03-02T09:11:18;21.50;;;15.33;;
9240;SDS011;53485;49.326;9.738;2023-03-02T09:13:45;23.17;;;16.57;;
9240;SDS011;53485;49.326;9.738;2023-03-02T09:16:12;21.87;;;15.03;;
9240;SDS011;53485;49.326;9.738;2023-03-02T09:18:38;22.90;;;16.23;;
9240;SDS011;53485;49.326;9.738;2023-03-02T09:21:04;23.73;;;16.43;;
9240;SDS011;53485;49.326;9.738;2023-03-02T09:23:31;23.87;;;16.40;;
9240;SDS011;53485;49.326;9.738;2023-03-02T09:25:57;23.17;;;14.83;;
9240;SDS011;53485;49.326;9.738;2023-03-02T09:28:24;21.57;;;15.17;;
9240;SDS011;53485;49.326;9.738;2023-03-02T09:30:51;22.17;;;15.47;;
9240;SDS011;53485;49.326;9.738;2023-03-02T09:33:17;23.50;;;14.67;;
9240;SDS011;53485;49.326;9.738;2023-03-02T09:35:43;23.63;;;16.73;;
9240;SDS011;53485;49.326;9.738;2023-03-02T09:38:10;28.17;;;15.73;;
9240;SDS011;53485;49.326;9.738;2023-03-02T09:40:37;26.23;;;16.30;;
9240;SDS011;53485;49.326;9.738;2023-03-02T09:45:50;22.10;;;15.80;;
9240;SDS011;53485;49.326;9.738;2023-03-02T09:48:19;25.30;;;14.57;;
9240;SDS011;53485;49.326;9.738;2023-03-02T09:50:50;20.03;;;14.93;;
9240;SDS011;53485;49.326;9.738;2023-03-02T09:53:20;24.53;;;15.60;;
9240;SDS011;53485;49.326;9.738;2023-03-02T09:55:43;25.20;;;17.63;;
9240;SDS011;53485;49.326;9.738;2023-03-02T09:58:13;25.07;;;19.67;;
9240;SDS011;53485;49.326;9.738;2023-03-02T10:00:37;31.30;;;22.23;;
9240;SDS011;53485;49.326;9.738;2023-03-02T10:03:05;21.03;;;14.87;;
9240;SDS011;53485;49.326;9.738;2023-03-02T10:05:38;23.50;;;15.30;;
9240;SDS011;53485;49.326;9.738;2023-03-02T10:08:04;22.80;;;14.80;;
9240;SDS011;53485;49.326;9.738;2023-03-02T10:10:35;20.87;;;15.17;;
9240;SDS011;53485;49.326;9.738;2023-03-02T10:13:05;22.13;;;14.50;;
9240;SDS011;53485;49.326;9.738;2023-03-02T10:20:39;20.07;;;13.83;;
9240;SDS011;53485;49.326;9.738;2023-03-02T10:23:08;31.67;;;15.53;;
9240;SDS011;53485;49.326;9.738;2023-03-02T10:25:47;22.03;;;14.13;;
9240;SDS011;53485;49.326;9.738;2023-03-02T10:28:18;21.17;;;14.27;;
9240;SDS011;53485;49.326;9.738;2023-03-02T10:30:42;33.00;;;15.87;;
9240;SDS011;53485;49.326;9.738;2023-03-02T10:33:12;23.10;;;15.40;;
9240;SDS011;53485;49.326;9.738;2023-03-02T10:35:37;23.63;;;15.63;;
9240;SDS011;53485;49.326;9.738;2023-03-02T10:38:11;19.87;;;14.30;;
9240;SDS011;53485;49.326;9.738;2023-03-02T10:40:41;20.00;;;15.33;;
9240;SDS011;53485;49.326;9.738;2023-03-02T10:43:10;22.30;;;14.90;;
9240;SDS011;53485;49.326;9.738;2023-03-02T10:45:32;20.33;;;14.70;;
9240;SDS011;53485;49.326;9.738;2023-03-02T10:48:01;18.00;;;13.57;;
9240;SDS011;53485;49.326;9.738;2023-03-02T10:50:26;19.20;;;13.60;;
9240;SDS011;53485;49.326;9.738;2023-03-02T10:52:52;20.43;;;15.50;;
9240;SDS011;53485;49.326;9.738;2023-03-02T10:55:19;29.27;;;16.87;;
9240;SDS011;53485;49.326;9.738;2023-03-02T10:57:55;20.17;;;14.30;;
9240;SDS011;53485;49.326;9.738;2023-03-02T11:00:16;20.37;;;13.60;;
9240;SDS011;53485;49.326;9.738;2023-03-02T11:02:59;20.40;;;15.07;;
9240;SDS011;53485;49.326;9.738;2023-03-02T11:05:26;21.80;;;14.27;;
9240;SDS011;53485;49.326;9.738;2023-03-02T11:07:52;20.43;;;14.17;;
9240;SDS011;53485;49.326;9.738;2023-03-02T11:10:18;22.03;;;14.33;;
9240;SDS011;53485;49.326;9.738;2023-03-02T11:12:45;36.37;;;15.43;;
9240;SDS011;53485;49.326;9.738;2023-03-02T11:15:27;21.90;;;14.43;;
9240;SDS011;53485;49.326;9.738;2023-03-02T11:17:58;53.40;;;15.47;;
9240;SDS011;53485;49.326;9.738;2023-03-02T11:20:24;19.47;;;13.07;;
9240;SDS011;53485;49.326;9.738;2023-03-02T11:22:52;18.33;;;13.03;;
9240;SDS011;53485;49.326;9.738;2023-03-02T11:25:21;20.33;;;12.53;;
9240;SDS011;53485;49.326;9.738;2023-03-02T11:27:42;19.63;;;12.40;;
9240;SDS011;53485;49.326;9.738;2023-03-02T11:30:10;19.50;;;13.27;;
9240;SDS011;53485;49.326;9.738;2023-03-02T11:32:41;20.93;;;12.23;;
9240;SDS011;53485;49.326;9.738;2023-03-02T11:35:08;18.13;;;12.10;;
9240;SDS011;53485;49.326;9.738;2023-03-02T11:37:35;18.77;;;12.10;;
9240;SDS011;53485;49.326;9.738;2023-03-02T11:40:03;15.93;;;11.90;;
9240;SDS011;53485;49.326;9.738;2023-03-02T11:42:29;20.13;;;13.20;;
9240;SDS011;53485;49.326;9.738;2023-03-02T11:44:54;17.80;;;12.47;;
9240;SDS011;53485;49.326;9.738;2023-03-02T11:47:20;14.90;;;12.17;;
9240;SDS011;53485;49.326;9.738;2023-03-02T11:49:49;20.53;;;12.90;;
9240;SDS011;53485;49.326;9.738;2023-03-02T11:52:17;18.27;;;12.80;;
9240;SDS011;53485;49.326;9.738;2023-03-02T11:54:43;19.63;;;12.17;;
9240;SDS011;53485;49.326;9.738;2023-03-02T11:57:15;18.00;;;11.93;;
9240;SDS011;53485;49.326;9.738;2023-03-02T11:59:35;17.70;;;12.13;;
9240;SDS011;53485;49.326;9.738;2023-03-02T12:02:02;19.50;;;12.77;;
9240;SDS011;53485;49.326;9.738;2023-03-02T12:04:30;19.77;;;12.80;;
9240;SDS011;53485;49.326;9.738;2023-03-02T12:06:55;18.07;;;11.60;;
9240;SDS011;53485;49.326;9.738;2023-03-02T12:09:25;18.10;;;12.60;;
9240;SDS011;53485;49.326;9.738;2023-03-02T12:11:55;16.37;;;11.20;;
9240;SDS011;53485;49.326;9.738;2023-03-02T12:14:24;19.77;;;12.87;;
9240;SDS011;53485;49.326;9.738;2023-03-02T12:16:48;16.60;;;11.40;;
9240;SDS011;53485;49.326;9.738;2023-03-02T12:24:23;19.97;;;12.60;;
9240;SDS011;53485;49.326;9.738;2023-03-02T12:26:47;19.47;;;12.50;;
9240;SDS011;53485;49.326;9.738;2023-03-02T12:29:21;18.37;;;12.10;;
9240;SDS011;53485;49.326;9.738;2023-03-02T12:31:49;19.43;;;12.20;;
9240;SDS011;53485;49.326;9.738;2023-03-02T12:36:47;17.83;;;12.70;;
9240;SDS011;53485;49.326;9.738;2023-03-02T12:39:18;23.00;;;12.43;;
9240;SDS011;53485;49.326;9.738;2023-03-02T12:41:45;22.43;;;13.47;;
9240;SDS011;53485;49.326;9.738;2023-03-02T12:44:14;18.90;;;13.90;;
9240;SDS011;53485;49.326;9.738;2023-03-02T12:46:37;19.00;;;12.77;;
9240;SDS011;53485;49.326;9.738;2023-03-02T12:49:42;21.77;;;12.93;;
9240;SDS011;53485;49.326;9.738;2023-03-02T12:51:54;22.83;;;12.27;;
9240;SDS011;53485;49.326;9.738;2023-03-02T12:54:20;18.43;;;12.07;;
9240;SDS011;53485;49.326;9.738;2023-03-02T12:56:45;18.43;;;12.23;;
9240;SDS011;53485;49.326;9.738;2023-03-02T13:01:44;19.87;;;13.53;;
9240;SDS011;53485;49.326;9.738;2023-03-02T13:06:42;17.53;;;12.20;;
9240;SDS011;53485;49.326;9.738;2023-03-02T13:09:10;20.40;;;12.07;;
9240;SDS011;53485;49.326;9.738;2023-03-02T13:11:35;17.00;;;11.53;;
9240;SDS011;53485;49.326;9.738;2023-03-02T13:14:15;18.77;;;12.20;;
9240;SDS011;53485;49.326;9.738;2023-03-02T13:16:29;18.63;;;12.07;;
9240;SDS011;53485;49.326;9.738;2023-03-02T13:18:57;17.60;;;11.37;;
9240;SDS011;53485;49.326;9.738;2023-03-02T13:21:27;21.03;;;11.37;;
9240;SDS011;53485;49.326;9.738;2023-03-02T13:23:50;20.10;;;12.50;;
9240;SDS011;53485;49.326;9.738;2023-03-02T13:26:23;18.57;;;11.73;;
9240;SDS011;53485;49.326;9.738;2023-03-02T13:28:45;22.17;;;12.10;;
9240;SDS011;53485;49.326;9.738;2023-03-02T13:31:17;16.40;;;10.83;;
9240;SDS011;53485;49.326;9.738;2023-03-02T13:33:42;19.37;;;11.67;;
9240;SDS011;53485;49.326;9.738;2023-03-02T13:36:41;15.00;;;10.27;;
9240;SDS011;53485;49.326;9.738;2023-03-02T13:38:51;18.37;;;10.47;;
9240;SDS011;53485;49.326;9.738;2023-03-02T13:41:20;18.53;;;11.33;;
9240;SDS011;53485;49.326;9.738;2023-03-02T13:43:46;17.50;;;11.10;;
9240;SDS011;53485;49.326;9.738;2023-03-02T13:46:28;15.53;;;10.37;;
9240;SDS011;53485;49.326;9.738;2023-03-02T13:48:54;17.47;;;11.67;;
9240;SDS011;53485;49.326;9.738;2023-03-02T13:51:20;18.97;;;11.33;;
9240;SDS011;53485;49.326;9.738;2023-03-02T13:54:09;19.03;;;10.67;;
9240;SDS011;53485;49.326;9.738;2023-03-02T13:56:32;17.23;;;10.90;;
9240;SDS011;53485;49.326;9.738;2023-03-02T13:58:57;17.07;;;10.47;;
9240;SDS011;53485;49.326;9.738;2023-03-02T14:01:23;18.20;;;11.17;;
9240;SDS011;53485;49.326;9.738;2023-03-02T14:03:50;15.43;;;10.37;;
9240;SDS011;53485;49.326;9.738;2023-03-02T14:06:17;25.27;;;11.90;;
9240;SDS011;53485;49.326;9.738;2023-03-02T14:08:44;14.97;;;9.90;;
9240;SDS011;53485;49.326;9.738;2023-03-02T14:11:09;15.57;;;9.17;;
9240;SDS011;53485;49.326;9.738;2023-03-02T14:13:37;17.57;;;10.30;;
9240;SDS011;53485;49.326;9.738;2023-03-02T14:16:03;12.47;;;8.70;;
9240;SDS011;53485;49.326;9.738;2023-03-02T14:18:35;17.70;;;10.70;;
9240;SDS011;53485;49.326;9.738;2023-03-02T14:20:58;16.07;;;10.30;;
9240;SDS011;53485;49.326;9.738;2023-03-02T14:23:24;17.77;;;10.83;;
9240;SDS011;53485;49.326;9.738;2023-03-02T14:25:50;13.87;;;8.90;;
9240;SDS011;53485;49.326;9.738;2023-03-02T14:28:21;14.60;;;9.33;;
9240;SDS011;53485;49.326;9.738;2023-03-02T14:30:44;12.97;;;9.00;;
9240;SDS011;53485;49.326;9.738;2023-03-02T14:33:14;15.17;;;8.80;;
9240;SDS011;53485;49.326;9.738;2023-03-02T14:35:38;12.03;;;8.30;;
9240;SDS011;53485;49.326;9.738;2023-03-02T14:38:05;19.97;;;8.73;;
9240;SDS011;53485;49.326;9.738;2023-03-02T14:40:31;14.43;;;8.20;;
9240;SDS011;53485;49.326;9.738;2023-03-02T14:42:58;11.77;;;7.70;;
9240;SDS011;53485;49.326;9.738;2023-03-02T14:45:25;12.30;;;7.57;;
9240;SDS011;53485;49.326;9.738;2023-03-02T14:47:51;14.73;;;8.83;;
9240;SDS011;53485;49.326;9.738;2023-03-02T14:50:18;15.70;;;8.10;;
9240;SDS011;53485;49.326;9.738;2023-03-02T14:52:47;15.63;;;8.27;;
9240;SDS011;53485;49.326;9.738;2023-03-02T14:55:12;13.57;;;7.50;;
9240;SDS011;53485;49.326;9.738;2023-03-02T14:57:37;11.50;;;8.07;;
9240;SDS011;53485;49.326;9.738;2023-03-02T15:00:03;16.57;;;8.70;;
9240;SDS011;53485;49.326;9.738;2023-03-02T15:02:30;17.20;;;8.87;;